Time;durP1;ratioP1;P1;durP2;ratioP2;P2;SDS_P1;SDS_P2;PMS_P1;PMS_P2;Temp;Humidity;BMP_temperature;BMP_pressure;BME280_temperature;BME280_humidity;BME280_pressure;Samples;Min_cycle;Max_cycle;Signal;HPM_P1;HPM_P2
2023/01/21 12:48:51;;;;;;;35.97;14.32;;;2.20;99.90;;;;;;5066799;28;20781;-66
2023/01/21 12:51:33;;;;;;;43.08;16.70;;;2.20;99.90;;;;;;5069281;28;20555;-63
2023/01/21 12:54:12;;;;;;;;;;;2.30;99.90;;;;;;5067569;28;20097;-64
2023/01/21 12:56:49;;;;;;;39.42;15.50;;;2.50;99.90;;;;;;5068602;28;20272;-62
2023/01/21 12:59:26;;;;;;;47.78;16.77;;;2.60;99.90;;;;;;5069071;28;20024;-63
2023/01/21 13:02:04;;;;;;;41.55;16.63;;;2.60;99.90;;;;;;5066885;28;20052;-63
2023/01/21 13:04:38;;;;;;;53.00;18.73;;;2.80;99.90;;;;;;5067118;28;20040;-63
2023/01/21 13:07:13;;;;;;;47.67;18.20;;;2.90;99.90;;;;;;5068402;28;20028;-63
2023/01/21 13:10:02;;;;;;;46.72;18.05;;;2.90;99.90;;;;;;5047893;28;20036;-63
2023/01/21 13:12:31;;;;;;;51.78;17.80;;;3.00;99.90;;;;;;5048794;28;20159;-64
2023/01/21 13:15:12;;;;;;;48.13;18.17;;;3.00;99.90;;;;;;5047100;28;20017;-63
2023/01/21 13:17:42;;;;;;;49.35;17.95;;;3.00;99.90;;;;;;5048623;28;20029;-64
2023/01/21 13:20:13;;;;;;;47.13;19.02;;;3.00;99.90;;;;;;5048839;28;20381;-64
2023/01/21 13:22:46;;;;;;;51.60;18.00;;;2.90;99.90;;;;;;5048221;28;20116;-65
2023/01/21 13:25:21;;;;;;;50.83;18.42;;;2.90;99.90;;;;;;5049234;28;20037;-66
2023/01/21 13:28:25;;;;;;;45.13;18.10;;;3.00;99.90;;;;;;5047560;28;20041;-65
2023/01/21 13:31:23;;;;;;;40.17;16.83;;;3.00;99.90;;;;;;5053402;28;20432;-65
2023/01/21 13:34:11;;;;;;;48.08;17.90;;;3.00;99.90;;;;;;5044598;28;20117;-65
2023/01/21 13:36:40;;;;;;;45.97;17.63;;;3.00;99.90;;;;;;5066523;28;20420;-65
2023/01/21 13:39:29;;;;;;;45.58;17.60;;;3.00;99.90;;;;;;5067508;28;20035;-65
2023/01/21 13:42:32;;;;;;;44.78;17.95;;;3.10;99.90;;;;;;5067897;28;20033;-65
2023/01/21 13:45:04;;;;;;;42.80;18.60;;;3.10;99.90;;;;;;5064826;28;20064;-64
2023/01/21 13:47:32;;;;;;;37.05;16.30;;;3.10;99.90;;;;;;5066295;28;20162;-65
2023/01/21 13:50:03;;;;;;;41.75;17.33;;;3.10;99.90;;;;;;5067740;28;20028;-65
2023/01/21 13:52:47;;;;;;;46.25;19.10;;;3.10;99.90;;;;;;5067309;28;20039;-66
2023/01/21 13:55:51;;;;;;;38.55;16.25;;;3.10;99.90;;;;;;5068294;28;20021;-65
2023/01/21 13:58:53;;;;;;;38.42;15.73;;;3.00;99.90;;;;;;5062777;28;20048;-66
2023/01/21 14:01:27;;;;;;;41.25;17.25;;;3.10;99.90;;;;;;5054094;28;20025;-65
2023/01/21 14:03:59;;;;;;;40.90;17.05;;;3.10;99.90;;;;;;5054387;28;20394;-65
2023/01/21 14:06:35;;;;;;;38.03;17.92;;;3.10;99.90;;;;;;5054293;28;20114;-65
2023/01/21 14:09:29;;;;;;;35.70;17.60;;;3.10;99.90;;;;;;5054643;28;20025;-65
2023/01/21 14:12:10;;;;;;;42.83;16.58;;;3.10;99.90;;;;;;5054212;28;20087;-65
2023/01/21 14:14:48;;;;;;;38.08;17.42;;;3.10;99.90;;;;;;5053476;28;20021;-65
2023/01/21 14:17:48;;;;;;;40.45;17.25;;;3.10;99.90;;;;;;5053914;28;20025;-65
2023/01/21 14:20:35;;;;;;;36.78;15.88;;;3.10;99.90;;;;;;5053905;28;20028;-65
2023/01/21 14:23:44;;;;;;;40.67;16.13;;;3.00;99.90;;;;;;5054588;28;20091;-63
2023/01/21 14:26:26;;;;;;;38.53;16.95;;;2.90;99.90;;;;;;5044557;28;20086;-63
2023/01/21 14:29:19;;;;;;;40.35;15.60;;;2.80;99.90;;;;;;5052871;28;20040;-63
2023/01/21 14:32:00;;;;;;;36.78;14.88;;;2.80;99.90;;;;;;5049857;28;20029;-63
2023/01/21 14:34:30;;;;;;;39.58;17.33;;;2.80;99.90;;;;;;5053255;28;20021;-63
2023/01/21 14:37:03;;;;;;;34.28;14.65;;;2.80;99.90;;;;;;5050939;28;20111;-62
2023/01/21 14:39:49;;;;;;;37.35;16.38;;;2.80;99.90;;;;;;5051973;28;20032;-62
2023/01/21 14:42:17;;;;;;;44.30;16.80;;;2.90;99.90;;;;;;5051967;28;20064;-64
2023/01/21 14:44:50;;;;;;;38.35;15.60;;;2.90;99.90;;;;;;5050510;28;20021;-63
2023/01/21 14:47:21;;;;;;;40.67;16.08;;;2.90;99.90;;;;;;5050184;28;20049;-64
2023/01/21 14:49:54;;;;;;;;;;;2.90;99.90;;;;;;5052077;28;20551;-64
2023/01/21 14:52:42;;;;;;;35.30;13.38;;;2.90;99.90;;;;;;5051317;28;19909;-63
2023/01/21 14:55:26;;;;;;;38.13;14.73;;;2.80;99.90;;;;;;5052370;28;20505;-63
2023/01/21 14:57:53;;;;;;;30.58;13.50;;;2.80;99.90;;;;;;5050700;28;21232;-63
2023/01/21 15:00:30;;;;;;;30.60;12.82;;;2.80;99.90;;;;;;5047586;28;20021;-64
2023/01/21 15:03:08;;;;;;;34.75;14.40;;;2.90;99.90;;;;;;5051408;28;20501;-66
2023/01/21 15:05:35;;;;;;;40.15;16.35;;;2.80;99.90;;;;;;5051282;28;20090;-64
2023/01/21 15:08:21;;;;;;;36.17;14.02;;;2.80;99.90;;;;;;5050555;28;20394;-62
2023/01/21 15:11:02;;;;;;;40.25;15.80;;;2.80;99.90;;;;;;5049775;28;20021;-64
2023/01/21 15:13:27;;;;;;;37.55;15.13;;;2.70;99.90;;;;;;5049009;28;20504;-65
2023/01/21 15:16:31;;;;;;;31.98;13.52;;;2.70;99.90;;;;;;5049587;28;20033;-65
2023/01/21 15:19:08;;;;;;;32.25;13.27;;;2.70;99.90;;;;;;5051477;28;20029;-63
2023/01/21 15:21:36;;;;;;;34.90;15.25;;;2.70;99.90;;;;;;5051765;28;20062;-63
2023/01/21 15:24:25;;;;;;;42.08;17.27;;;2.70;99.90;;;;;;5051716;28;20111;-63
2023/01/21 15:27:13;;;;;;;38.00;15.88;;;2.70;99.90;;;;;;5048559;28;20036;-64
2023/01/21 15:30:01;;;;;;;34.13;13.98;;;2.70;99.90;;;;;;5050269;28;20501;-64
2023/01/21 15:32:43;;;;;;;39.83;15.85;;;2.60;99.90;;;;;;5047821;28;20076;-64
2023/01/21 15:35:21;;;;;;;39.33;15.77;;;2.60;99.90;;;;;;5048735;28;20051;-64
2023/01/21 15:37:50;;;;;;;36.90;16.08;;;2.60;99.90;;;;;;5050303;28;20036;-65
2023/01/21 15:40:25;;;;;;;35.42;15.85;;;2.50;99.90;;;;;;5050047;28;20029;-65
2023/01/21 15:42:59;;;;;;;35.92;13.38;;;2.50;99.90;;;;;;5050729;28;20078;-63
2023/01/21 15:45:39;;;;;;;34.95;16.85;;;2.50;99.90;;;;;;5051211;28;20031;-64
2023/01/21 15:48:28;;;;;;;32.97;14.48;;;2.40;99.90;;;;;;5051620;28;20679;-65
2023/01/21 15:51:14;;;;;;;34.15;14.25;;;2.30;99.90;;;;;;5046428;28;20028;-64
2023/01/21 15:53:58;;;;;;;36.20;14.68;;;2.30;99.90;;;;;;5046652;28;20118;-62
2023/01/21 15:56:43;;;;;;;29.95;14.77;;;2.20;99.90;;;;;;5044391;28;20064;-64
2023/01/21 15:59:36;;;;;;;33.60;14.60;;;2.20;99.90;;;;;;5048256;28;20410;-61
2023/01/21 16:02:16;;;;;;;34.80;14.45;;;2.10;99.90;;;;;;5049274;28;20036;-60
2023/01/21 16:05:02;;;;;;;38.25;14.95;;;2.10;99.90;;;;;;5044326;28;20030;-63
2023/01/21 16:07:59;;;;;;;30.30;13.52;;;2.00;99.90;;;;;;5043673;28;20033;-66
2023/01/21 16:10:30;;;;;;;30.67;13.27;;;2.00;99.90;;;;;;5028082;28;20044;-65
2023/01/21 16:13:05;;;;;;;37.33;15.70;;;1.90;99.90;;;;;;5029428;28;20022;-64
2023/01/21 16:15:42;;;;;;;38.88;16.83;;;1.90;99.90;;;;;;5030217;28;20047;-65
2023/01/21 16:18:27;;;;;;;35.10;15.38;;;1.90;99.90;;;;;;5037848;28;20108;-64
2023/01/21 16:20:55;;;;;;;33.60;14.05;;;1.80;99.90;;;;;;5058301;28;20652;-64
2023/01/21 16:23:23;;;;;;;38.75;15.10;;;1.80;99.90;;;;;;5057933;28;20017;-62
2023/01/21 16:25:51;;;;;;;39.85;16.40;;;1.80;99.90;;;;;;5049580;28;20040;-64
2023/01/21 16:28:18;;;;;;;39.13;18.17;;;1.80;99.90;;;;;;5050540;28;20032;-62
2023/01/21 16:30:56;;;;;;;34.03;16.15;;;1.60;99.90;;;;;;5049670;28;20017;-62
2023/01/21 16:33:22;;;;;;;30.80;14.20;;;1.50;99.90;;;;;;5050949;28;20029;-62
2023/01/21 16:35:51;;;;;;;33.20;14.50;;;1.30;99.90;;;;;;5053731;28;20009;-62
2023/01/21 16:38:20;;;;;;;38.13;16.77;;;1.10;99.90;;;;;;5050265;28;20036;-62
2023/01/21 16:40:59;;;;;;;43.13;18.33;;;1.00;99.90;;;;;;5050311;28;20025;-64
2023/01/21 16:43:26;;;;;;;32.58;16.23;;;0.90;99.90;;;;;;5038522;28;20032;-63
2023/01/21 16:45:55;;;;;;;42.03;17.70;;;0.80;99.90;;;;;;5051822;28;20028;-64
2023/01/21 16:48:24;;;;;;;37.67;16.10;;;0.70;99.90;;;;;;5051909;28;20056;-66
2023/01/21 16:50:51;;;;;;;37.67;15.50;;;0.70;99.90;;;;;;5051447;28;20116;-66
2023/01/21 16:53:19;;;;;;;36.08;14.73;;;0.60;99.90;;;;;;5050980;28;20095;-65
2023/01/21 16:55:51;;;;;;;38.70;16.27;;;0.50;99.90;;;;;;5052281;28;20017;-62
2023/01/21 16:58:31;;;;;;;37.80;17.85;;;0.50;99.90;;;;;;5051245;28;20025;-63
2023/01/21 17:01:14;;;;;;;46.42;19.35;;;0.40;99.90;;;;;;5051816;28;20031;-64
2023/01/21 17:03:42;;;;;;;40.80;16.67;;;0.40;99.90;;;;;;5049783;28;20067;-64
2023/01/21 17:06:10;;;;;;;38.28;16.67;;;0.30;99.90;;;;;;5050768;28;20122;-65
2023/01/21 17:08:37;;;;;;;70.03;26.98;;;0.30;99.90;;;;;;5051671;28;20029;-63
2023/01/21 17:11:07;;;;;;;64.88;25.55;;;0.20;99.90;;;;;;5051661;28;20017;-68
2023/01/21 17:13:37;;;;;;;63.67;26.02;;;0.20;99.90;;;;;;5051126;28;20418;-63
2023/01/21 17:16:04;;;;;;;39.17;18.85;;;0.20;99.90;;;;;;5051842;28;20067;-64
2023/01/21 17:18:34;;;;;;;35.00;15.90;;;0.10;99.90;;;;;;5051483;28;20500;-64
2023/01/21 17:21:15;;;;;;;37.42;17.90;;;0.10;99.90;;;;;;5050846;28;20025;-63
2023/01/21 17:23:54;;;;;;;34.47;17.05;;;0.10;99.90;;;;;;5049943;28;20031;-64
2023/01/21 17:26:24;;;;;;;32.88;16.50;;;0.20;99.90;;;;;;5058211;28;20099;-63
2023/01/21 17:28:56;;;;;;;44.28;17.08;;;0.30;99.90;;;;;;5071576;28;20050;-63
2023/01/21 17:31:26;;;;;;;36.50;15.63;;;0.40;99.90;;;;;;5071457;28;20481;-64
2023/01/21 17:34:13;;;;;;;38.40;15.57;;;0.50;99.90;;;;;;5071584;28;20393;-65
2023/01/21 17:36:40;;;;;;;32.25;15.65;;;0.50;99.90;;;;;;5065021;28;20036;-63
2023/01/21 17:39:07;;;;;;;36.85;14.23;;;0.40;99.90;;;;;;5055319;28;20474;-66
2023/01/21 17:41:39;;;;;;;33.58;15.40;;;0.30;99.90;;;;;;5053421;28;20094;-64
2023/01/21 17:44:24;;;;;;;37.10;15.75;;;0.30;99.90;;;;;;5054855;28;20029;-65
2023/01/21 17:46:54;;;;;;;38.35;15.90;;;0.20;99.90;;;;;;5054813;28;20045;-66
2023/01/21 17:49:22;;;;;;;39.75;17.55;;;0.10;99.90;;;;;;5052876;28;20052;-66
2023/01/21 17:51:50;;;;;;;39.50;16.35;;;0.10;99.90;;;;;;5055040;28;20059;-64
2023/01/21 17:54:24;;;;;;;44.38;17.08;;;0.00;99.90;;;;;;5053708;28;20385;-63
2023/01/21 17:56:56;;;;;;;36.75;15.73;;;-0.10;99.90;;;;;;5053966;28;20052;-65
2023/01/21 17:59:21;;;;;;;;;;;-0.10;99.90;;;;;;5054066;28;20017;-64
2023/01/21 18:01:47;;;;;;;39.20;16.15;;;-0.20;99.90;;;;;;5054243;28;19905;-65
2023/01/21 18:04:12;;;;;;;37.28;15.95;;;-0.20;99.90;;;;;;5054273;28;20039;-65
2023/01/21 18:06:38;;;;;;;33.72;15.27;;;-0.30;99.90;;;;;;5052598;28;20481;-66
2023/01/21 18:09:04;;;;;;;39.13;15.85;;;-0.30;99.90;;;;;;5054659;28;20035;-68
2023/01/21 18:11:29;;;;;;;41.28;16.08;;;-0.30;99.90;;;;;;5053657;28;20017;-64
2023/01/21 18:13:55;;;;;;;33.63;15.80;;;-0.40;99.90;;;;;;5054316;28;20029;-65
2023/01/21 18:16:21;;;;;;;37.58;16.33;;;-0.40;99.90;;;;;;5053721;28;20075;-65
2023/01/21 18:18:48;;;;;;;35.75;15.77;;;-0.40;99.90;;;;;;5054272;28;20032;-64
2023/01/21 18:21:18;;;;;;;37.80;17.05;;;-0.40;99.90;;;;;;5054453;28;20469;-63
2023/01/21 18:23:43;;;;;;;40.80;17.42;;;-0.40;99.90;;;;;;5048763;28;20026;-64
2023/01/21 18:26:19;;;;;;;44.97;19.52;;;-0.40;99.90;;;;;;5034395;28;20037;-64
2023/01/21 18:28:44;;;;;;;40.42;18.38;;;-0.50;99.90;;;;;;5032741;28;20472;-64
2023/01/21 18:31:10;;;;;;;37.60;16.73;;;-0.50;99.90;;;;;;5033753;28;20087;-64
2023/01/21 18:33:36;;;;;;;37.75;17.17;;;-0.50;99.90;;;;;;5049666;28;20032;-64
2023/01/21 18:36:01;;;;;;;35.28;15.85;;;-0.60;99.90;;;;;;5052938;28;20024;-64
2023/01/21 18:38:28;;;;;;;38.42;17.15;;;-0.60;99.90;;;;;;5053123;28;20066;-63
2023/01/21 18:40:57;;;;;;;39.80;16.90;;;-0.60;99.90;;;;;;5052037;28;20123;-63
2023/01/21 18:43:24;;;;;;;38.15;17.45;;;-0.60;99.90;;;;;;5053352;28;20052;-65
2023/01/21 18:45:50;;;;;;;45.92;19.67;;;-0.70;99.90;;;;;;5052042;28;20545;-64
2023/01/21 18:48:27;;;;;;;39.13;16.58;;;-0.60;99.90;;;;;;5050200;28;20132;-64
2023/01/21 18:50:52;;;;;;;38.08;16.10;;;-0.60;99.90;;;;;;5050635;28;20017;-65
2023/01/21 18:53:18;;;;;;;34.08;15.43;;;-0.50;99.90;;;;;;5050755;28;20056;-65
2023/01/21 18:55:47;;;;;;;33.83;15.65;;;-0.40;99.90;;;;;;5050762;28;20032;-66
2023/01/21 18:58:13;;;;;;;36.92;16.08;;;-0.40;99.90;;;;;;5050299;28;20045;-64
2023/01/21 19:00:40;;;;;;;38.55;16.52;;;-0.30;99.90;;;;;;5051330;28;20028;-65
2023/01/21 19:03:06;;;;;;;37.92;15.50;;;-0.30;99.90;;;;;;5037923;28;20041;-66
2023/01/21 19:05:37;;;;;;;43.42;17.00;;;-0.30;99.90;;;;;;5031631;28;20030;-67
2023/01/21 19:08:09;;;;;;;38.47;17.55;;;-0.30;99.90;;;;;;5047634;28;20032;-67
2023/01/21 19:10:35;;;;;;;41.33;17.70;;;-0.30;99.90;;;;;;5052468;28;20098;-68
2023/01/21 19:13:01;;;;;;;35.38;15.80;;;-0.30;99.90;;;;;;5049755;28;20470;-66
2023/01/21 19:15:27;;;;;;;32.72;15.20;;;-0.40;99.90;;;;;;5050682;28;20049;-65
2023/01/21 19:17:53;;;;;;;42.83;17.95;;;-0.40;99.90;;;;;;5051263;28;20032;-65
2023/01/21 19:20:21;;;;;;;31.83;16.17;;;-0.40;99.90;;;;;;5051425;28;20104;-66
2023/01/21 19:22:48;;;;;;;30.30;14.85;;;-0.30;99.90;;;;;;5051648;28;20047;-67
2023/01/21 19:25:16;;;;;;;37.70;18.85;;;-0.20;99.90;;;;;;5051619;28;20040;-65
2023/01/21 19:27:46;;;;;;;39.95;18.88;;;-0.20;99.90;;;;;;5051221;28;20029;-66
2023/01/21 19:30:16;;;;;;;37.78;17.17;;;-0.10;99.90;;;;;;5051746;28;20036;-66
2023/01/21 19:32:42;;;;;;;35.92;16.08;;;-0.10;99.90;;;;;;5051950;28;20102;-66
2023/01/21 19:35:08;;;;;;;36.63;16.27;;;-0.10;99.90;;;;;;5051094;28;20473;-65
2023/01/21 19:37:35;;;;;;;38.42;15.85;;;-0.10;99.90;;;;;;5051401;28;20079;-64
2023/01/21 19:40:01;;;;;;;38.00;17.13;;;-0.20;99.90;;;;;;5050251;28;20103;-66
2023/01/21 19:42:26;;;;;;;37.28;16.08;;;-0.20;99.90;;;;;;5050925;28;20188;-64
2023/01/21 19:44:52;;;;;;;34.05;16.92;;;-0.20;99.90;;;;;;5051310;28;20021;-66
2023/01/21 19:47:26;;;;;;;35.97;17.98;;;-0.20;99.90;;;;;;5051006;28;20555;-66
2023/01/21 19:49:52;;;;;;;35.92;16.00;;;-0.30;99.90;;;;;;5051341;28;20105;-67
2023/01/21 19:52:17;;;;;;;43.72;19.23;;;-0.30;99.90;;;;;;5051499;28;20481;-67
2023/01/21 19:54:43;;;;;;;39.15;16.85;;;-0.40;99.90;;;;;;5050734;28;20040;-67
2023/01/21 19:57:13;;;;;;;34.42;15.68;;;-0.40;99.90;;;;;;5050739;28;20104;-67
2023/01/21 19:59:39;;;;;;;31.17;15.48;;;-0.50;99.90;;;;;;5049278;28;20029;-66
2023/01/21 20:02:05;;;;;;;32.80;15.25;;;-0.50;99.90;;;;;;5050777;28;20148;-66
2023/01/21 20:04:30;;;;;;;38.25;16.33;;;-0.50;99.90;;;;;;5050027;28;20032;-65
2023/01/21 20:06:56;;;;;;;38.00;16.77;;;-0.50;99.90;;;;;;5049664;28;20182;-66
2023/01/21 20:09:22;;;;;;;37.80;17.10;;;-0.50;99.90;;;;;;5050594;28;20117;-65
2023/01/21 20:11:48;;;;;;;39.58;16.38;;;-0.50;99.90;;;;;;5050983;28;20135;-67
2023/01/21 20:14:13;;;;;;;35.80;16.08;;;-0.50;99.90;;;;;;5051093;28;20032;-65
2023/01/21 20:16:46;;;;;;;34.83;14.93;;;-0.60;99.90;;;;;;5050649;28;20107;-66
2023/01/21 20:19:13;;;;;;;39.58;17.00;;;-0.60;99.90;;;;;;5049710;28;20013;-66
2023/01/21 20:21:39;;;;;;;32.53;15.65;;;-0.70;99.90;;;;;;5064199;28;20036;-65
2023/01/21 20:24:06;;;;;;;34.92;15.75;;;-0.70;99.90;;;;;;5048616;28;20029;-67
2023/01/21 20:26:34;;;;;;;34.00;16.70;;;-0.70;99.90;;;;;;5048951;28;20188;-67
2023/01/21 20:29:02;;;;;;;37.15;17.80;;;-0.70;99.90;;;;;;5050880;28;20064;-66
2023/01/21 20:31:31;;;;;;;30.13;15.40;;;-0.80;99.90;;;;;;5050112;28;20017;-67
2023/01/21 20:33:58;;;;;;;35.80;16.08;;;-0.80;99.90;;;;;;5049603;28;20036;-69
2023/01/21 20:36:25;;;;;;;33.47;16.60;;;-0.80;99.90;;;;;;5048572;28;20032;-65
2023/01/21 20:38:53;;;;;;;36.30;17.02;;;-0.80;99.90;;;;;;5049199;28;20086;-68
2023/01/21 20:41:18;;;;;;;36.55;15.82;;;-0.80;99.90;;;;;;5049634;28;20029;-67
2023/01/21 20:43:44;;;;;;;31.90;15.32;;;-0.90;99.90;;;;;;5048748;28;20035;-65
2023/01/21 20:46:18;;;;;;;38.03;15.73;;;-0.90;99.90;;;;;;5050593;28;20025;-66
2023/01/21 20:48:44;;;;;;;38.50;16.52;;;-0.90;99.90;;;;;;5051610;28;20490;-65
2023/01/21 20:51:10;;;;;;;34.17;16.25;;;-1.00;99.90;;;;;;5049703;28;20021;-67
2023/01/21 20:53:36;;;;;;;33.17;16.70;;;-0.90;99.90;;;;;;5051522;28;20029;-66
2023/01/21 20:56:21;;;;;;;34.90;16.30;;;-1.00;99.90;;;;;;5051585;28;20082;-65
2023/01/21 20:58:47;;;;;;;30.90;15.02;;;-1.00;99.90;;;;;;5029495;28;20120;-65
2023/01/21 21:01:14;;;;;;;40.38;17.52;;;-1.00;99.90;;;;;;5031671;28;20021;-64
2023/01/21 21:03:40;;;;;;;32.17;15.77;;;-1.00;99.90;;;;;;5044594;28;20017;-64
2023/01/21 21:06:14;;;;;;;37.45;16.25;;;-1.00;99.90;;;;;;5049865;28;20025;-64
2023/01/21 21:08:40;;;;;;;34.70;16.13;;;-1.10;99.90;;;;;;5052217;28;20493;-64
2023/01/21 21:11:06;;;;;;;36.35;15.48;;;-1.10;99.90;;;;;;5054509;28;20055;-66
2023/01/21 21:13:32;;;;;;;33.28;15.30;;;-1.10;99.90;;;;;;5053655;28;20032;-66
2023/01/21 21:15:57;;;;;;;35.75;16.83;;;-1.10;99.90;;;;;;5053821;28;20053;-64
2023/01/21 21:18:23;;;;;;;34.83;16.67;;;-1.20;99.90;;;;;;5055396;28;20151;-64
2023/01/21 21:20:51;;;;;;;34.22;16.45;;;-1.20;99.90;;;;;;5052763;28;20025;-65
2023/01/21 21:23:16;;;;;;;33.05;15.43;;;-1.20;99.90;;;;;;5055346;28;20123;-64
2023/01/21 21:25:46;;;;;;;41.60;18.33;;;-1.20;99.90;;;;;;5054609;28;20083;-64
2023/01/21 21:28:13;;;;;;;36.00;16.02;;;-1.20;99.90;;;;;;5053683;28;20055;-65
2023/01/21 21:30:39;;;;;;;35.65;17.52;;;-1.20;99.90;;;;;;5055168;28;20020;-64
2023/01/21 21:33:07;;;;;;;35.83;16.63;;;-1.20;99.90;;;;;;5053560;28;20055;-66
